createdAt,value
2018-10-03T00:01:25.059Z,23.8
2018-10-03T00:11:24.330Z,23.6
2018-10-03T00:21:23.505Z,23.6
2018-10-03T00:31:22.725Z,23.5
2018-10-03T00:41:21.946Z,23.5
2018-10-03T00:51:21.162Z,23.4
2018-10-03T01:01:20.388Z,23.5
2018-10-03T01:11:19.603Z,23.4
2018-10-03T01:21:18.835Z,23.5
2018-10-03T01:31:18.044Z,23.5
2018-10-03T01:41:17.270Z,23.5
2018-10-03T01:51:16.488Z,23.6
2018-10-03T02:01:15.716Z,23.6
2018-10-03T02:11:14.925Z,23.6
2018-10-03T02:21:14.147Z,23.5
2018-10-03T02:31:13.372Z,23.6
2018-10-03T02:41:12.596Z,23.6
2018-10-03T02:51:11.812Z,23.6
2018-10-03T03:01:11.032Z,23.7
2018-10-03T03:11:10.255Z,23.7
2018-10-03T03:21:09.470Z,23.8
2018-10-03T03:31:08.691Z,23.6
2018-10-03T03:41:07.917Z,23.6
2018-10-03T03:51:07.135Z,23.6
2018-10-03T04:01:06.357Z,23.6
2018-10-03T04:11:05.585Z,23.7
2018-10-03T04:21:04.807Z,23.7
2018-10-03T04:31:04.032Z,23.8
2018-10-03T04:41:03.246Z,23.8
2018-10-03T04:51:02.474Z,23.7
2018-10-03T05:01:01.695Z,23.5
2018-10-03T05:11:00.917Z,23.4
2018-10-03T05:21:00.134Z,23.4
2018-10-03T05:30:59.362Z,23.4
2018-10-03T05:40:58.581Z,23.5
2018-10-03T05:50:57.797Z,23.6
2018-10-03T06:00:57.018Z,23.8
2018-10-03T06:10:56.243Z,23.9
2018-10-03T06:20:55.459Z,24
2018-10-03T06:30:54.685Z,24.1
2018-10-03T06:40:53.900Z,24.4
2018-10-03T06:50:53.120Z,24.5
2018-10-03T07:00:52.343Z,25.1
2018-10-03T07:10:51.567Z,25.3
2018-10-03T07:20:50.784Z,25.6
2018-10-03T07:30:50.006Z,25.8
2018-10-03T07:40:49.226Z,25.9
2018-10-03T07:50:48.449Z,26.1
2018-10-03T08:00:47.673Z,26.3
2018-10-03T08:10:46.900Z,26.4
2018-10-03T08:20:46.125Z,26.4
2018-10-03T08:30:45.342Z,26.5
2018-10-03T08:40:44.579Z,26.6
2018-10-03T08:50:43.794Z,26.6
2018-10-03T09:00:43.011Z,26.6
2018-10-03T09:10:42.289Z,26.6
2018-10-03T09:20:41.462Z,26.6
2018-10-03T09:30:40.686Z,26.6
2018-10-03T09:40:39.909Z,26.4
2018-10-03T09:50:39.126Z,26.3
2018-10-03T10:00:38.371Z,26.1
2018-10-03T10:10:37.575Z,25.9
2018-10-03T10:20:36.825Z,25.8
2018-10-03T10:30:36.025Z,25.6
2018-10-03T10:40:35.385Z,25.4
2018-10-03T10:50:34.469Z,26.1
2018-10-03T11:00:33.689Z,26.4
2018-10-03T11:10:32.913Z,26.4
2018-10-03T11:20:32.138Z,26.3
2018-10-03T11:30:31.363Z,26.1
2018-10-03T11:40:30.584Z,25.9
2018-10-03T11:50:29.863Z,25.8
2018-10-03T12:00:29.028Z,25.6
2018-10-03T12:10:28.251Z,25.6
2018-10-03T12:20:27.471Z,25.7
2018-10-03T12:30:26.694Z,25.6
2018-10-03T12:40:25.913Z,25.4
2018-10-03T12:50:25.160Z,25.5
2018-10-03T13:00:24.356Z,25.4
2018-10-03T13:10:23.581Z,25.9
2018-10-03T13:20:22.800Z,25.9
2018-10-03T13:30:22.023Z,25.9
2018-10-03T13:40:21.245Z,25.8
2018-10-03T13:50:20.464Z,25.2
2018-10-03T14:00:19.684Z,25.1
2018-10-03T14:10:18.999Z,24.8
2018-10-03T14:20:18.137Z,24.8
2018-10-03T14:30:17.346Z,25
2018-10-03T14:40:16.566Z,25
2018-10-03T14:50:15.790Z,25
2018-10-03T15:00:15.015Z,24.8
2018-10-03T15:10:14.231Z,24.9
2018-10-03T15:20:13.456Z,24.6
2018-10-03T15:30:12.720Z,24.6
2018-10-03T15:40:11.893Z,24.4
2018-10-03T15:50:11.111Z,24.4
2018-10-03T16:00:10.384Z,24.4
2018-10-03T16:10:09.558Z,24.3
2018-10-03T16:20:08.773Z,24.5
2018-10-03T16:30:07.997Z,24.4
2018-10-03T16:40:07.219Z,24.7
2018-10-03T16:50:06.514Z,24.7
2018-10-03T17:00:05.673Z,24.9
2018-10-03T17:10:04.896Z,24.7
2018-10-03T17:20:04.118Z,24.9
2018-10-03T17:30:03.440Z,24.8
2018-10-03T17:40:02.565Z,24.9
2018-10-03T17:50:01.790Z,24.9
2018-10-03T18:00:01.014Z,24.9
2018-10-03T18:10:00.237Z,24.9
2018-10-03T18:19:59.460Z,24.8
2018-10-03T18:29:58.683Z,24.9
2018-10-03T18:39:57.907Z,24.9
2018-10-03T18:49:57.133Z,24.9
2018-10-03T18:59:56.354Z,24.8
2018-10-03T19:09:55.571Z,24.8
2018-10-03T19:19:54.826Z,24.7
2018-10-03T19:29:54.017Z,24.7
2018-10-03T19:39:53.244Z,24.8
2018-10-03T19:49:52.466Z,24.6
2018-10-03T19:59:51.690Z,24.3
2018-10-03T20:09:50.915Z,24.2
2018-10-03T20:19:50.140Z,24.2
2018-10-03T20:29:49.359Z,24.2
2018-10-03T20:39:48.582Z,24.1
2018-10-03T20:49:47.804Z,24.1
2018-10-03T20:59:47.032Z,24
2018-10-03T21:09:46.298Z,23.9
2018-10-03T21:19:45.474Z,24
2018-10-03T21:29:44.702Z,24.1
2018-10-03T21:39:43.913Z,24.5
2018-10-03T21:49:43.211Z,24.3
2018-10-03T21:59:42.357Z,24
2018-10-03T22:09:41.581Z,23.8
2018-10-03T22:19:40.808Z,23.8
2018-10-03T22:29:40.030Z,23.8
2018-10-03T22:39:39.273Z,23.6
2018-10-03T22:49:38.494Z,23.5
2018-10-03T22:59:37.707Z,23.5
2018-10-03T23:09:36.928Z,23.6
2018-10-03T23:19:36.149Z,23.6
2018-10-03T23:29:35.373Z,23.6
2018-10-03T23:39:34.595Z,23.6
2018-10-03T23:49:33.817Z,23.6
2018-10-03T23:59:33.033Z,23.5
